CPX242 Details

Departure: Huntsville International Airport (KHSV)
Arrival: Chicago/Rockford International Airport (KRFD) at N/A
Route: RQZ BNA J73 GUIDO JOT
Notes:


Current Weather Information
KHSV 190653Z AUTO 12006KT 10SM CLR 14/07 A2990 RMK AO2 SLP119 T01390072
KRFD 190654Z 16008KT 10SM CLR 09/05 A2986 RMK AO2 SLP113 T00940050